2000 Spring Time Trial results
Geiger Grade
8/12/200 - Official: Dale Beesmer
place last first age time back mph km/hr date
1 Lorson Rich m 0:36:08 12.95 20.84 12-Aug-00
2 Geddry Matt m 0:37:33 0:01:25 12.46 20.06 12-Aug-00
3 Crow Raj m 0:37:55 0:01:47 12.34 19.86 12-Aug-00
4 Graham Ward m 0:39:09 0:03:01 11.95 19.24 12-Aug-00
5 Coleman Scott m 0:39:37 0:03:29 11.81 19.01 12-Aug-00
6 Pritchard Chris m 0:40:43 0:04:35 11.49 18.50 12-Aug-00
7 Lee Nick m 0:40:47 0:04:39 11.48 18.47 12-Aug-00
8 Badley Ron m 0:43:09 0:07:01 10.85 17.45 12-Aug-00
9 Werth John m 0:49:41 0:13:33 9.42 15.16 12-Aug-00
COLD SPRINGS 21 mi ITT
8/9/2000 - Official: Dale Beesmer
place last first age time back mph km/hr date
1 Gossi Paul m 0:46:26 27.14 43.67 09-Aug-00
2 Tuma Chris m 0:47:56 0:01:30 26.29 42.30 09-Aug-00
3 Dixon Dan m 0:48:50 0:02:24 25.80 41.52 09-Aug-00
4 Crow Raj m 0:49:06 0:02:40 25.66 41.30 09-Aug-00
5 Mackey Wayne m 0:49:16 0:02:50 25.58 41.16 09-Aug-00
6 Hiatt Nathan m 0:51:11 0:04:45 24.62 39.62 09-Aug-00
7 Lorson Rich m 0:51:48 0:05:22 24.32 39.14 09-Aug-00
8 Whitehead John m 0:52:51 0:06:25 23.84 38.37 09-Aug-00
9 Coleman Scott m 0:53:08 0:06:42 23.71 38.16 09-Aug-00
10 Lee Nick m 0:54:48 0:08:22 22.99 37.00 09-Aug-00
11 Lamere Bernie m 0:54:51 0:08:25 22.97 36.97 09-Aug-00
12 Caruthers Scott m 0:55:18 0:08:52 22.78 36.67 09-Aug-00
13 Olson Gordon m 0:55:19 0:08:53 22.78 36.66 09-Aug-00
GEIGER GRADE (to VC Highlands)
7/12/200 - Official: Dale Beesmer
place last first age time back mph km/hr date
1 Bennett Paul m 0:27:48 12-Jul-00
2 Hill Tim m 0:28:17 0:00:29 12-Jul-00
3 Van den Akker Rick m 0:28:34 0:00:46 12-Jul-00
4 Tuma Chris m 0:29:35 0:01:47 12-Jul-00
5 Lorson Rich m 0:29:48 0:02:00 12-Jul-00
6 Hill Stan m 0:30:06 0:02:18 12-Jul-00
7 Bean Jeff m 0:30:11 0:02:23 12-Jul-00
8 Geddry Matt m 0:30:36 0:02:48 12-Jul-00
9 Olson Gordon m 0:31:13 0:03:25 12-Jul-00
10 Coleman Scott m 0:31:27 0:03:39 12-Jul-00
11 Crow Raj m 0:31:48 0:04:00 12-Jul-00
12 Nick Lee m 0:34:11 0:06:23 12-Jul-00
13 McNeil Linda f 0:39:16 0:11:28 12-Jul-00
COLD SPRINGS 14 mi ITT
6/14/200 - Official: Dale Beesmer
place last first age time back mph km/hr date
1 Van Den Akker Rick m 0:29:45 28.24 45.44 14-Jun-00
2 George Quinn m 0:31:21 0:01:36 26.79 43.12 14-Jun-00
3 Timmerman Chad m 0:32:02 0:02:17 26.22 42.20 14-Jun-00
4 Tuma Chris m 0:32:03 0:02:18 26.21 42.18 14-Jun-00
5 Crow Raj m 0:32:57 0:03:12 25.49 41.03 14-Jun-00
6 Nelson Bryan m 0:33:19 0:03:34 25.21 40.57 14-Jun-00
7 Cromwell Dean m 0:34:02 0:04:17 24.68 39.72 14-Jun-00
8 Bissell Darrick m 0:34:54 0:05:09 24.07 38.73 14-Jun-00
9 Lee Nick m 0:38:15 0:08:30 21.96 35.34 14-Jun-00
10 Campbell Terry m 0:42:36 0:12:51 19.72 31.73 14-Jun-00
PEAVINE PEAK HILL CLIMB
6/7/200 - Officials: Kurstin Graham / Dale Beesmer
place last first age time back mph km/hr date
1 Sweet Dustin m 0:54:38 7.58 12.19 07-Jun-00
2 Skiles Tom m 0:55:36 0:00:58 7.45 11.98 07-Jun-00
3 Gossi Paul m 0:56:34 0:01:56 7.32 11.78 07-Jun-00
4 Phillips Scott m 0:56:42 0:02:04 7.30 11.75 07-Jun-00
5 Miller Scott m 0:57:46 0:03:08 7.17 11.53 07-Jun-00
6 Leland Scott m 0:58:36 0:03:58 7.06 11.37 07-Jun-00
7 Morin Michael m 0:58:56 0:04:18 7.02 11.30 07-Jun-00
8 Weaver Don m 1:03:02 0:08:24 6.57 10.57 07-Jun-00
9 Martyniatis Joe m 1:06:33 0:11:55 6.22 10.01 07-Jun-00
10 Mayne Jude m 1:06:49 0:12:11 6.20 9.97 07-Jun-00
11 Bryan Steve m 1:07:42 0:13:04 6.12 9.84 07-Jun-00
12 Weaver Tony m 1:07:50 0:13:12 6.10 9.82 07-Jun-00
13 AuCoin Dave m 1:10:12 0:15:34 5.90 9.49 07-Jun-00
14 Rhiner Jim m 1:14:40 0:20:02 5.54 8.92 07-Jun-00
15 Rissler Pete m 1:16:49 0:22:11 5.39 8.67 07-Jun-00
16 Brennan Steve m 1:19:19 0:24:41 5.22 8.40 07-Jun-00
17 Duncan Colin m 1:20:43 0:26:05 5.13 8.25 07-Jun-00
18 Taylor Jack m 1:23:21 0:28:43 4.97 7.99 07-Jun-00
19 Hosek Devin m 1:37:36 0:42:58 4.24 6.83 07-Jun-00
20 Eudard David m 1:43:52 0:49:14 3.99 6.41 07-Jun-00
GEIGER GRADE (7.8 miles, +2100 ft)
04/30/2000 - Official: Dale Beesmer
place last first age time back mph km/hr date
1 Gossi Paul m 0:34:05 13.73 22.10 30-Apr-00
2 Young Scott m 0:35:06 0:01:01 13.33 21.46 30-Apr-00
3 Skiles Tom m 0:35:20 0:01:15 13.25 21.32 30-Apr-00
4 Wasson Danny m 0:36:31 0:02:26 12.82 20.62 30-Apr-00
5 Lorson Rich m 0:36:38 0:02:33 12.78 20.56 30-Apr-00
6 Webb Tom m 0:37:37 0:03:32 12.44 20.02 30-Apr-00
7 Tuma Chris m 0:37:43 0:03:38 12.41 19.97 30-Apr-00
8 Vaughn Scott m 0:38:17 0:04:12 12.22 19.67 30-Apr-00
9 Martynaitis Juozas m 0:39:26 0:05:21 11.87 19.10 30-Apr-00
10 Crow Raj m 0:41:52 0:07:47 11.18 17.99 30-Apr-00
11 Ginsburg Dana f 0:42:21 0:08:16 11.05 17.78 30-Apr-00
12 Weaver Don m 0:42:34 0:08:29 10.99 17.69 30-Apr-00
13 Ingram Katie f 0:43:23 0:09:18 10.79 17.36 30-Apr-00
14 Cockman Brad m 0:43:29 0:09:24 10.76 17.32 30-Apr-00
15 Willet Chris m 0:44:48 0:10:43 10.45 16.81 30-Apr-00
16 AuCoin Dave m 0:45:34 0:11:29 10.27 16.53 30-Apr-00
17 Gasway Jim m 0:46:55 0:12:50 9.98 16.05 30-Apr-00
18 Risssler Peter m 0:49:14 0:15:09 9.51 15.30 30-Apr-00
19 Hedgcorth Wendy f 0:49:20 0:15:15 9.49 15.27 30-Apr-00
20 Lankford Devin m 0:50:29 0:16:24 9.27 14.92 30-Apr-00
COLD SPRINGS 21 mi ITT
April 23, 2000 - Official: Dale Beesmer
place last first age time back mph km/hr date
1 Tuma Chris m 0:49:12 25.61 41.21 23-Apr-00
2 Crow Raj m 0:54:30 0:05:18 23.12 37.21 23-Apr-00
3 Whitehead John m 0:56:02 0:06:50 22.49 36.19 23-Apr-00
4 Martynaitis Juozas m 15 0:57:59 0:08:47 21.73 34.97 23-Apr-00
EAGLE CANYON 10mi TT
April 16, 2000 - Official: Dale Beesmer
place last first age time back mph km/hr date
1 Quinn George m 0:27:28 21.84 35.15 16-Apr-00
2 Wasson Danny m 0:29:01 0:01:33 20.68 33.28 16-Apr-00
3 Timmerman Chad m 0:29:08 0:01:40 20.59 33.14 16-Apr-00
4 Hiatt Nathan m 0:29:25 0:01:57 20.40 32.82 16-Apr-00
5 Branby Sandy f 0:30:58 0:03:30 19.38 31.18 16-Apr-00
6 Ginsburg Dana f 0:32:14 0:04:46 18.61 29.96 16-Apr-00
7 Headgcorth Tiger m 0:33:14 0:05:46 18.05 29.05 16-Apr-00
8 Merriman Don m 0:34:54 0:07:26 17.19 27.67 16-Apr-00
9 Simon Dave m 0:38:24 0:10:56 15.63 25.14 16-Apr-00
FRANKTOWN 10 mi I.T.T.
April 9, 2000 - Official: Dale Beesmer
place last first age time back mph km/hr date
1 Van Den Akker Rick m 0:21:28 27.95 44.98 09-Apr-00
2 Webb Tom m 0:22:04 0:00:36 27.19 43.76 09-Apr-00
3 Cromwell Dean t 0:22:18 0:00:50 26.91 43.30 09-Apr-00
4 Frantz Roger t 0:22:18 0:00:50 26.91 43.30 09-Apr-00
5 Tuma Chris t 0:22:34 0:01:06 26.59 42.79 09-Apr-00
6 Tuma Abbey t 0:22:34 0:01:06 26.59 42.79 09-Apr-00
7 Nelson Bryan m 0:22:57 0:01:29 26.14 42.07 09-Apr-00
8 Gossi Paul m 0:23:07 0:01:39 25.96 41.77 09-Apr-00
9 Timmerman Chad m 0:23:09 0:01:41 25.92 41.71 09-Apr-00
10 Vaughn Scott m 0:23:25 0:01:57 25.62 41.23 09-Apr-00
11 Quinn George t 0:23:56 0:02:28 25.07 40.34 09-Apr-00
12 Laueaga Marci t 0:23:56 0:02:28 25.07 40.34 09-Apr-00
13 Henry Mark m 0:26:10 0:04:42 22.93 36.90 09-Apr-00
14 Rosenthal Bill m 0:26:16 0:04:48 22.84 36.76 09-Apr-00
15 Werth John m 0:26:28 0:05:00 22.67 36.48 09-Apr-00
16 Ginsburg Dana f 0:26:44 0:05:16 22.44 36.12 09-Apr-00
17 Henry Mike m 0:27:08 0:05:40 22.11 35.59 09-Apr-00
18 Timmerman Natasha f 0:29:41 0:08:13 20.21 32.53 09-Apr-00
19 Massetti Dan m 0:36:43 0:15:15 16.34 26.30 09-Apr-00
COLD SPRINGS 14 mi I.T.T.
April 2 , 2000 - Official: Dale Beesmer
place last first age time back mph km/hr date
1 Tuma Chris m 0:32:03 0:00:00 26.21 42.18 02-Apr-00
2 Timmerman Chad m 0:32:23 0:00:20 25.94 41.74 02-Apr-00
3 Rosser Peter m 0:32:31 0:00:28 25.83 41.57 02-Apr-00
4 Quinn George m 0:32:36 0:00:33 25.77 41.47 02-Apr-00
5 Young Scott m 0:33:55 0:01:52 24.77 39.86 02-Apr-00
6 Vaughan Scott m 0:34:30 0:02:27 24.35 39.18 02-Apr-00
7 Cromwell Dean m 0:34:52 0:02:49 24.09 38.77 02-Apr-00
8 Branby Sandy f 0:35:45 0:03:42 23.50 37.81 02-Apr-00
9 Herrick Joe m 0:35:55 0:03:52 23.39 37.64 02-Apr-00
10 Davis John m 0:38:47 0:06:44 21.66 34.85 02-Apr-00
11 Gasway Jim m 0:39:12 0:07:09 21.43 34.48 02-Apr-00
12 Lundin Kim f 0:41:00 0:08:57 20.49 32.97 02-Apr-00
13 Timmerman Natasha f 0:41:51 0:09:48 20.07 32.30 02-Apr-00
FRANKTOWN 10 mi I.T.T.
March 26, 2000 - Official: Rich Paul
place last first age time back mph km/hr date
1 Gossi Paul m 0:24:36 0:00:00 24.39 39.25 26-Mar-00
2 Young Scott m 0:24:54 0:00:18 24.10 38.78 26-Mar-00
3 Branby Sandy f 0:26:25 0:01:49 22.71 36.55 26-Mar-00
4 Moore Matt m 0:26:35 0:01:59 22.57 36.32 26-Mar-00
5 Rosenthall Bill m 0:28:03 0:03:27 21.39 34.42 26-Mar-00
6 Rissler Pete m 0:30:19 0:05:43 19.79 31.85 26-Mar-00